N44CK KSAN-KAPC
Flight info
| Callsign | N44CK |
|---|---|
| Flight time | N/A |
| Altitude | 34000 |
| Route | PADRZ2 OROSZ COREZ RGOOD VNYRD1 |
| Aircraft | C525/L-SDFGRWY/S |
Departure
| Time | 2026-05-04 15:30 |
|---|---|
| Airport | San Diego International Airport (KSAN) |
Arrival
| Time | N/A |
|---|---|
| Airport | Napa County Airport (KAPC) |
| Time | Latitude | Longitude | Altitude | Speed | Heading |
|---|---|---|---|---|---|
| 2026-05-04 15:11 | 32.73331 | -117.17818 | 21 ft | 0 kts | 17° |
| 2026-05-04 15:24 | 32.73353 | -117.17841 | 21 ft | 5 kts | 286° |
| 2026-05-04 15:25 | 32.73360 | -117.17880 | 20 ft | 4 kts | 283° |
| 2026-05-04 15:25 | 32.73367 | -117.17916 | 20 ft | 5 kts | 279° |
| 2026-05-04 15:25 | 32.73343 | -117.17956 | 20 ft | 7 kts | 199° |
| 2026-05-04 15:26 | 32.73251 | -117.17982 | 19 ft | 5 kts | 173° |
| 2026-05-04 15:26 | 32.73226 | -117.17957 | 19 ft | 4 kts | 112° |
| 2026-05-04 15:26 | 32.73209 | -117.17891 | 19 ft | 5 kts | 106° |
| 2026-05-04 15:27 | 32.73197 | -117.17839 | 20 ft | 7 kts | 106° |
| 2026-05-04 15:27 | 32.73155 | -117.17667 | 20 ft | 13 kts | 106° |
| 2026-05-04 15:28 | 32.73089 | -117.17551 | 20 ft | 4 kts | 144° |
| 2026-05-04 15:28 | 32.73048 | -117.17530 | 20 ft | 8 kts | 180° |
| 2026-05-04 15:28 | 32.73016 | -117.17565 | 20 ft | 0 kts | 285° |
| 2026-05-04 15:29 | 32.73027 | -117.17612 | 20 ft | 24 kts | 286° |
| 2026-05-04 15:30 | 32.74446 | -117.21407 | 1612 ft | 178 kts | 303° |
| 2026-05-04 15:30 | 32.76593 | -117.25181 | 4465 ft | 188 kts | 304° |
| 2026-05-04 15:31 | 32.78079 | -117.27732 | 6312 ft | 190 kts | 301° |
| 2026-05-04 15:31 | 32.78801 | -117.29033 | 7202 ft | 191 kts | 301° |
| 2026-05-04 15:32 | 32.81465 | -117.32695 | 9610 ft | 201 kts | 308° |
| 2026-05-04 15:32 | 32.83631 | -117.34888 | 11045 ft | 210 kts | 313° |
| 2026-05-04 15:33 | 32.86420 | -117.35744 | 11293 ft | 225 kts | 2° |
| 2026-05-04 15:34 | 32.89507 | -117.31651 | 10771 ft | 236 kts | 91° |
| 2026-05-04 15:34 | 32.89260 | -117.29793 | 10544 ft | 229 kts | 116° |
| 2026-05-04 15:34 | 32.88018 | -117.26244 | 9875 ft | 233 kts | 123° |
| 2026-05-04 15:35 | 32.86481 | -117.22823 | 9108 ft | 237 kts | 126° |
| 2026-05-04 15:35 | 32.85627 | -117.21175 | 8836 ft | 232 kts | 128° |
| 2026-05-04 15:35 | 32.84732 | -117.19593 | 8616 ft | 226 kts | 130° |
| 2026-05-04 15:36 | 32.83023 | -117.16606 | 8207 ft | 217 kts | 129° |
| 2026-05-04 15:36 | 32.82143 | -117.15171 | 7866 ft | 219 kts | 132° |
| 2026-05-04 15:36 | 32.81236 | -117.13766 | 7637 ft | 215 kts | 131° |
| 2026-05-04 15:37 | 32.80299 | -117.12373 | 7367 ft | 214 kts | 134° |
| 2026-05-04 15:37 | 32.79314 | -117.10999 | 6923 ft | 220 kts | 134° |
| 2026-05-04 15:37 | 32.78314 | -117.09625 | 6577 ft | 221 kts | 134° |
| 2026-05-04 15:37 | 32.77284 | -117.08277 | 6129 ft | 227 kts | 135° |
| 2026-05-04 15:38 | 32.76191 | -117.06901 | 5752 ft | 227 kts | 135° |
| 2026-05-04 15:38 | 32.75128 | -117.05578 | 5550 ft | 219 kts | 135° |
| 2026-05-04 15:38 | 32.73987 | -117.04363 | 5077 ft | 224 kts | 148° |
| 2026-05-04 15:38 | 32.72532 | -117.03688 | 4635 ft | 223 kts | 172° |
| 2026-05-04 15:39 | 32.71047 | -117.03773 | 4382 ft | 212 kts | 201° |
| 2026-05-04 15:39 | 32.69859 | -117.04767 | 3850 ft | 213 kts | 237° |
| 2026-05-04 15:39 | 32.70021 | -117.07808 | 3178 ft | 184 kts | 302° |
| 2026-05-04 15:40 | 32.70676 | -117.08995 | 2853 ft | 165 kts | 303° |
| 2026-05-04 15:40 | 32.71187 | -117.10129 | 2440 ft | 154 kts | 292° |
| 2026-05-04 15:40 | 32.71493 | -117.11288 | 2137 ft | 134 kts | 288° |
| 2026-05-04 15:40 | 32.71749 | -117.12302 | 1772 ft | 124 kts | 288° |
| 2026-05-04 15:41 | 32.71974 | -117.13274 | 1369 ft | 121 kts | 288° |
| 2026-05-04 15:41 | 32.72207 | -117.14216 | 996 ft | 119 kts | 287° |
| 2026-05-04 15:41 | 32.72437 | -117.15133 | 683 ft | 112 kts | 287° |
| 2026-05-04 15:41 | 32.72652 | -117.15998 | 487 ft | 107 kts | 286° |
| 2026-05-04 15:42 | 32.72856 | -117.16837 | 296 ft | 105 kts | 287° |
| 2026-05-04 15:42 | 32.73045 | -117.17654 | 130 ft | 100 kts | 286° |
| 2026-05-04 15:42 | 32.73222 | -117.18401 | 25 ft | 86 kts | 286° |
| 2026-05-04 15:42 | 32.73356 | -117.18971 | 19 ft | 50 kts | 285° |
| 2026-05-04 15:43 | 32.73449 | -117.19093 | 19 ft | 10 kts | 30° |
| 2026-05-04 15:43 | 32.73481 | -117.19019 | 19 ft | 11 kts | 103° |
| 2026-05-04 15:43 | 32.73461 | -117.18938 | 19 ft | 9 kts | 107° |
| 2026-05-04 15:43 | 32.73445 | -117.18868 | 19 ft | 8 kts | 105° |
| 2026-05-04 15:44 | 32.73426 | -117.18789 | 19 ft | 11 kts | 108° |
| 2026-05-04 15:44 | 32.73401 | -117.18686 | 19 ft | 14 kts | 106° |
| 2026-05-04 15:44 | 32.73371 | -117.18562 | 19 ft | 15 kts | 106° |
| 2026-05-04 15:44 | 32.73348 | -117.18441 | 19 ft | 13 kts | 76° |
| 2026-05-04 15:45 | 32.73371 | -117.18409 | 19 ft | 0 kts | 25° |